createdAt,value
2019-03-23T00:01:42.121Z,101681.20
2019-03-23T00:04:15.887Z,101682.92
2019-03-23T00:06:49.389Z,101678.67
2019-03-23T00:09:22.925Z,101676.52
2019-03-23T00:11:56.552Z,101671.42
2019-03-23T00:14:30.031Z,101676.52
2019-03-23T00:17:03.565Z,101672.70
2019-03-23T00:19:36.920Z,101678.67
2019-03-23T00:22:10.429Z,101665.45
2019-03-23T00:24:43.909Z,101667.16
2019-03-23T00:27:18.379Z,101657.80
2019-03-23T00:29:51.800Z,101653.13
2019-03-23T00:32:25.276Z,101648.02
2019-03-23T00:34:58.690Z,101648.05
2019-03-23T00:37:32.230Z,101656.16
2019-03-23T00:40:08.198Z,101647.22
2019-03-23T00:42:41.746Z,101652.34
2019-03-23T00:45:15.183Z,101644.67
2019-03-23T00:47:48.645Z,101649.78
2019-03-23T00:50:22.012Z,101636.63
2019-03-23T00:52:55.480Z,101644.72
2019-03-23T00:55:28.978Z,101634.07
2019-03-23T00:58:02.507Z,101639.99
2019-03-23T01:00:36.008Z,101639.99
2019-03-23T01:03:09.609Z,101638.75
2019-03-23T01:05:43.037Z,101635.77
2019-03-23T01:08:16.608Z,101631.09
2019-03-23T01:10:50.073Z,101630.67
2019-03-23T01:13:24.012Z,101627.27
2019-03-23T01:15:57.697Z,101631.94
2019-03-23T01:18:31.422Z,101631.11
2019-03-23T01:21:05.105Z,101633.23
2019-03-23T01:23:38.747Z,101623.86
2019-03-23T01:26:12.463Z,101623.88
2019-03-23T01:28:46.049Z,101617.94
2019-03-23T01:31:19.471Z,101615.78
2019-03-23T01:33:52.996Z,101610.70
2019-03-23T01:36:26.540Z,101606.42
2019-03-23T01:39:00.057Z,101607.27
2019-03-23T01:41:33.956Z,101603.88
2019-03-23T01:44:07.564Z,101603.86
2019-03-23T01:46:40.985Z,101601.33
2019-03-23T01:49:14.582Z,101596.19
2019-03-23T01:51:48.191Z,101597.48
2019-03-23T01:54:21.735Z,101599.59
2019-03-23T01:56:55.359Z,101594.08
2019-03-23T01:59:28.971Z,101594.06
2019-03-23T02:02:02.464Z,101594.08
2019-03-23T02:04:36.067Z,101590.24
2019-03-23T02:07:13.862Z,101587.27
2019-03-23T02:09:44.744Z,101591.53
2019-03-23T02:12:18.347Z,101591.52
2019-03-23T02:14:51.847Z,101591.53
2019-03-23T02:17:25.471Z,101594.95
2019-03-23T02:19:58.973Z,101597.92
2019-03-23T02:22:32.541Z,101598.38
2019-03-23T02:25:07.200Z,101590.30
2019-03-23T02:27:40.744Z,101596.67
2019-03-23T02:30:14.449Z,101596.64
2019-03-23T02:32:48.204Z,101599.22
2019-03-23T02:35:21.652Z,101603.89
2019-03-23T02:37:55.212Z,101599.64
2019-03-23T02:40:30.844Z,101601.33
2019-03-23T02:43:07.185Z,101609.84
2019-03-23T02:45:40.964Z,101610.27
2019-03-23T02:48:14.665Z,101613.67
2019-03-23T02:50:48.223Z,101611.96
2019-03-23T02:53:21.692Z,101618.77
2019-03-23T02:55:55.354Z,101622.16
2019-03-23T02:58:30.691Z,101616.64
2019-03-23T03:01:04.186Z,101618.75
2019-03-23T03:03:41.758Z,101619.62
2019-03-23T03:06:15.371Z,101625.58
2019-03-23T03:08:48.962Z,101627.28
2019-03-23T03:11:26.579Z,101625.16
2019-03-23T03:14:00.424Z,101632.38
2019-03-23T03:16:35.327Z,101630.66
2019-03-23T03:19:10.247Z,101631.52
2019-03-23T03:21:46.421Z,101640.03
2019-03-23T03:24:20.018Z,101640.89
2019-03-23T03:26:53.545Z,101644.69
2019-03-23T03:29:27.280Z,101652.36
2019-03-23T03:32:01.534Z,101644.70
2019-03-23T03:34:35.045Z,101642.58
2019-03-23T03:37:08.547Z,101644.27
2019-03-23T03:39:41.939Z,101651.92
2019-03-23T03:42:15.602Z,101650.23
2019-03-23T03:44:49.214Z,101649.78
2019-03-23T03:47:22.756Z,101651.48
2019-03-23T03:49:56.222Z,101649.37
2019-03-23T03:52:29.854Z,101654.86
2019-03-23T03:55:03.737Z,101648.50
2019-03-23T03:57:37.233Z,101646.38
2019-03-23T04:00:10.884Z,101646.81
2019-03-23T04:02:44.337Z,101643.00
2019-03-23T04:05:17.878Z,101642.56
2019-03-23T04:07:51.416Z,101647.23
2019-03-23T04:10:24.941Z,101640.45
2019-03-23T04:12:58.984Z,101638.73
2019-03-23T04:15:32.557Z,101644.70
2019-03-23T04:18:06.041Z,101654.89
2019-03-23T04:20:39.571Z,101646.81
2019-03-23T04:23:13.087Z,101643.41
2019-03-23T04:25:46.742Z,101639.61
2019-03-23T04:28:20.373Z,101645.95
2019-03-23T04:30:53.828Z,101646.39
2019-03-23T04:33:27.258Z,101648.52
2019-03-23T04:36:00.814Z,101650.22
2019-03-23T04:38:34.302Z,101656.16
2019-03-23T04:41:07.821Z,101657.84
2019-03-23T04:43:41.392Z,101660.39
2019-03-23T04:46:14.891Z,101667.17
2019-03-23T04:48:48.516Z,101675.23
2019-03-23T04:51:21.974Z,101680.31
2019-03-23T04:53:55.709Z,101684.98
2019-03-23T04:56:29.256Z,101690.10
2019-03-23T04:59:02.889Z,101699.42
2019-03-23T05:01:36.388Z,101704.98
2019-03-23T05:04:10.054Z,101702.50
2019-03-23T05:06:43.550Z,101685.09
2019-03-23T05:09:17.093Z,101693.19
2019-03-23T05:11:50.579Z,101700.44
2019-03-23T05:14:24.118Z,101707.66
2019-03-23T05:16:57.679Z,101715.34
2019-03-23T05:19:31.421Z,101722.56
2019-03-23T05:22:04.920Z,101719.16
2019-03-23T05:24:38.575Z,101721.70
2019-03-23T05:27:11.998Z,101719.13
2019-03-23T05:29:45.545Z,101720.39
2019-03-23T05:32:19.048Z,101717.41
2019-03-23T05:34:52.514Z,101718.24
2019-03-23T05:37:26.142Z,101725.50
2019-03-23T05:39:59.652Z,101728.46
2019-03-23T05:42:33.152Z,101730.60
2019-03-23T05:45:07.782Z,101735.68
2019-03-23T05:47:41.338Z,101742.91
2019-03-23T05:50:14.879Z,101749.73
2019-03-23T05:52:48.489Z,101749.28
2019-03-23T05:55:22.167Z,101745.47
2019-03-23T05:57:55.614Z,101737.38
2019-03-23T06:00:29.247Z,101745.07
2019-03-23T06:03:02.998Z,101749.36
2019-03-23T06:05:39.539Z,101751.03
2019-03-23T06:08:13.147Z,101762.52
2019-03-23T06:10:46.790Z,101766.33
2019-03-23T06:13:20.268Z,101773.14
2019-03-23T06:15:53.837Z,101774.86
2019-03-23T06:18:27.542Z,101777.88
2019-03-23T06:21:01.261Z,101786.40
2019-03-23T06:23:34.961Z,101788.95
2019-03-23T06:26:08.486Z,101787.28
2019-03-23T06:28:42.075Z,101800.03
2019-03-23T06:31:15.520Z,101806.44
2019-03-23T06:33:49.018Z,101800.45
2019-03-23T06:36:22.706Z,101806.42
2019-03-23T06:39:05.013Z,101805.16
2019-03-23T06:41:31.401Z,101812.81
2019-03-23T06:44:05.114Z,101811.11
2019-03-23T06:46:38.773Z,101818.78
2019-03-23T06:49:12.243Z,101824.32
2019-03-23T06:51:45.862Z,101820.91
2019-03-23T06:54:19.338Z,101830.25
2019-03-23T06:56:52.842Z,101843.04
2019-03-23T06:59:26.297Z,101831.12
2019-03-23T07:01:59.735Z,101839.61
2019-03-23T07:04:33.229Z,101832.38
2019-03-23T07:07:06.870Z,101846.84
2019-03-23T07:09:40.557Z,101836.58
2019-03-23T07:12:15.790Z,101839.17
2019-03-23T07:14:50.415Z,101833.25
2019-03-23T07:17:24.639Z,101845.18
2019-03-23T07:19:58.937Z,101842.20
2019-03-23T07:22:33.052Z,101844.33
2019-03-23T07:25:09.230Z,101845.59
2019-03-23T07:27:43.253Z,101841.77
2019-03-23T07:30:20.021Z,101848.13
2019-03-23T07:32:54.614Z,101860.06
2019-03-23T07:35:28.494Z,101863.49
2019-03-23T07:38:02.572Z,101874.55
2019-03-23T07:40:36.784Z,101876.67
2019-03-23T07:43:10.688Z,101888.61
2019-03-23T07:45:44.713Z,101884.34
2019-03-23T07:48:18.774Z,101888.17
2019-03-23T07:50:52.873Z,101888.60
2019-03-23T07:53:26.697Z,101891.16
2019-03-23T07:56:00.690Z,101902.23
2019-03-23T07:58:34.517Z,101904.78
2019-03-23T08:01:08.558Z,101906.48
2019-03-23T08:03:44.296Z,101903.92
2019-03-23T08:06:18.201Z,101899.23
2019-03-23T08:08:52.119Z,101900.95
2019-03-23T08:11:29.090Z,101903.02
2019-03-23T08:14:02.940Z,101900.44
2019-03-23T08:16:36.913Z,101914.07
2019-03-23T08:19:10.587Z,101905.98
2019-03-23T08:21:44.789Z,101911.09
2019-03-23T08:24:20.393Z,101914.47
2019-03-23T08:26:54.877Z,101904.23
2019-03-23T08:29:28.877Z,101905.14
2019-03-23T08:32:03.533Z,101903.00
2019-03-23T08:34:37.675Z,101905.92
2019-03-23T08:37:12.137Z,101907.63
2019-03-23T08:39:48.693Z,101904.57
2019-03-23T08:42:21.806Z,101909.53
2019-03-23T08:44:55.868Z,101921.95
2019-03-23T08:47:30.210Z,101923.28
2019-03-23T08:50:05.952Z,101919.83
2019-03-23T08:52:39.992Z,101925.77
2019-03-23T08:55:14.026Z,101925.33
2019-03-23T08:57:47.983Z,101920.66
2019-03-23T09:00:21.844Z,101915.97
2019-03-23T09:02:55.286Z,101926.62
2019-03-23T09:05:29.480Z,101924.87
2019-03-23T09:08:05.095Z,101926.13
2019-03-23T09:10:40.471Z,101928.72
2019-03-23T09:13:15.717Z,101931.73
2019-03-23T09:15:49.861Z,101933.33
2019-03-23T09:18:23.731Z,101929.03
2019-03-23T09:20:57.661Z,101929.08
2019-03-23T09:23:32.953Z,101936.66
2019-03-23T09:26:08.500Z,101936.47
2019-03-23T09:28:42.559Z,101928.78
2019-03-23T09:31:17.965Z,101924.41
2019-03-23T09:33:51.865Z,101931.21
2019-03-23T09:36:26.130Z,101935.93
2019-03-23T09:39:01.089Z,101930.82
2019-03-23T09:41:35.130Z,101944.03
2019-03-23T09:44:09.250Z,101951.71
2019-03-23T09:46:42.958Z,101951.71
2019-03-23T09:49:17.056Z,101953.73
2019-03-23T09:51:51.102Z,101958.76
2019-03-23T09:54:25.165Z,101958.65
2019-03-23T09:56:59.949Z,101959.03
2019-03-23T09:59:33.930Z,101963.34
2019-03-23T10:02:08.466Z,101954.91
2019-03-23T10:04:47.215Z,101956.41
2019-03-23T10:07:21.947Z,101956.33
2019-03-23T10:09:56.156Z,101966.56
2019-03-23T10:12:30.099Z,101965.07
2019-03-23T10:15:06.081Z,101961.69
2019-03-23T10:17:40.346Z,101965.72
2019-03-23T10:20:14.141Z,101964.88
2019-03-23T10:22:48.032Z,101961.70
2019-03-23T10:25:22.883Z,101957.23
2019-03-23T10:27:56.891Z,101957.56
2019-03-23T10:30:30.829Z,101962.63
2019-03-23T10:33:05.443Z,101956.92
2019-03-23T10:35:39.531Z,101950.97
2019-03-23T10:38:13.615Z,101950.17
2019-03-23T10:40:47.889Z,101951.50
2019-03-23T10:43:22.094Z,101948.80
2019-03-23T10:45:56.283Z,101962.05
2019-03-23T10:48:30.405Z,101960.69
2019-03-23T10:51:04.464Z,101973.23
2019-03-23T10:53:38.495Z,101979.58
2019-03-23T10:56:12.400Z,101977.67
2019-03-23T10:58:46.394Z,101973.37
2019-03-23T11:01:20.400Z,101978.36
2019-03-23T11:03:54.830Z,101981.41
2019-03-23T11:06:28.841Z,101978.51
2019-03-23T11:09:02.984Z,101973.97
2019-03-23T11:11:37.218Z,101977.03
2019-03-23T11:14:11.173Z,101969.81
2019-03-23T11:16:44.985Z,101973.19
2019-03-23T11:19:19.031Z,101969.09
2019-03-23T11:21:53.102Z,101962.53
2019-03-23T11:24:27.003Z,101968.48
2019-03-23T11:27:01.202Z,101969.33
2019-03-23T11:29:35.243Z,101970.88
2019-03-23T11:32:09.211Z,101961.59
2019-03-23T11:34:43.434Z,101957.95
2019-03-23T11:37:19.900Z,101966.59
2019-03-23T11:39:53.778Z,101963.45
2019-03-23T11:42:27.762Z,101967.47
2019-03-23T11:45:01.897Z,101969.25
2019-03-23T11:47:36.058Z,101972.70
2019-03-23T11:50:13.070Z,101972.63
2019-03-23T11:52:47.225Z,101970.99
2019-03-23T11:55:21.021Z,101963.53
2019-03-23T11:57:55.374Z,101969.80
2019-03-23T12:00:29.359Z,101970.17
2019-03-23T12:03:03.417Z,101965.18
2019-03-23T12:05:37.055Z,101958.48
2019-03-23T12:08:10.861Z,101963.66
2019-03-23T12:10:45.043Z,101953.27
2019-03-23T12:13:19.303Z,101953.47
2019-03-23T12:15:53.418Z,101948.77
2019-03-23T12:18:27.460Z,101947.90
2019-03-23T12:21:01.492Z,101961.60
2019-03-23T12:23:35.450Z,101968.16
2019-03-23T12:26:09.531Z,101961.70
2019-03-23T12:28:43.593Z,101962.73
2019-03-23T12:31:18.140Z,101963.56
2019-03-23T12:33:52.279Z,101957.48
2019-03-23T12:36:26.361Z,101959.03
2019-03-23T12:39:00.511Z,101960.53
2019-03-23T12:41:34.615Z,101964.46
2019-03-23T12:44:08.632Z,101964.09
2019-03-23T12:46:48.349Z,101971.76
2019-03-23T12:49:18.444Z,101982.50
2019-03-23T12:51:52.533Z,101975.25
2019-03-23T12:54:28.077Z,101978.92
2019-03-23T12:57:02.008Z,101972.25
2019-03-23T12:59:35.938Z,101977.89
2019-03-23T13:02:09.988Z,101975.67
2019-03-23T13:04:44.559Z,101980.69
2019-03-23T13:07:18.635Z,101981.91
2019-03-23T13:09:52.393Z,101979.08
2019-03-23T13:12:26.295Z,101983.35
2019-03-23T13:15:00.317Z,101983.92
2019-03-23T13:17:34.410Z,101978.79
2019-03-23T13:20:09.078Z,101980.53
2019-03-23T13:22:43.267Z,101984.30
2019-03-23T13:25:17.206Z,101983.95
2019-03-23T13:27:51.238Z,101987.43
2019-03-23T13:30:25.012Z,101981.84
2019-03-23T13:32:59.028Z,101989.69
2019-03-23T13:35:32.857Z,101997.13
2019-03-23T13:38:06.954Z,102003.00
2019-03-23T13:40:40.943Z,102013.66
2019-03-23T13:43:15.159Z,102018.05
2019-03-23T13:45:48.915Z,102014.15
2019-03-23T13:48:23.977Z,102016.17
2019-03-23T13:50:57.897Z,102013.64
2019-03-23T13:53:33.452Z,102011.12
2019-03-23T13:56:07.389Z,102008.09
2019-03-23T13:58:41.490Z,102007.98
2019-03-23T14:01:15.407Z,102005.40
2019-03-23T14:03:50.724Z,102006.19
2019-03-23T14:06:24.248Z,102014.27
2019-03-23T14:08:58.228Z,102011.55
2019-03-23T14:11:32.351Z,102017.56
2019-03-23T14:14:06.357Z,102020.97
2019-03-23T14:16:40.478Z,102020.14
2019-03-23T14:19:14.268Z,102021.58
2019-03-23T14:21:47.917Z,102027.70
2019-03-23T14:24:21.873Z,102030.02
2019-03-23T14:26:56.410Z,102033.93
2019-03-23T14:29:30.504Z,102035.30
2019-03-23T14:32:05.689Z,102037.70
2019-03-23T14:34:39.971Z,102037.67
2019-03-23T14:37:14.278Z,102041.17
2019-03-23T14:39:48.304Z,102038.86
2019-03-23T14:42:24.701Z,102039.70
2019-03-23T14:44:58.845Z,102038.81
2019-03-23T14:47:32.703Z,102039.26
2019-03-23T14:50:07.565Z,102041.92
2019-03-23T14:52:41.474Z,102029.17
2019-03-23T14:55:15.778Z,102034.55
2019-03-23T14:57:50.636Z,102022.84
2019-03-23T15:00:32.149Z,102030.74
2019-03-23T15:03:06.119Z,102031.89
2019-03-23T15:05:40.282Z,102025.64
2019-03-23T15:08:14.124Z,102036.95
2019-03-23T15:10:48.141Z,102042.10
2019-03-23T15:13:22.271Z,102039.39
2019-03-23T15:15:58.235Z,102047.56
2019-03-23T15:18:32.363Z,102045.52
2019-03-23T15:21:06.625Z,102050.30
2019-03-23T15:23:40.683Z,102051.59
2019-03-23T15:26:14.750Z,102056.70
2019-03-23T15:28:48.665Z,102058.40
2019-03-23T15:31:22.744Z,102060.20
2019-03-23T15:33:56.738Z,102059.98
2019-03-23T15:36:30.621Z,102054.17
2019-03-23T15:39:06.504Z,102058.37
2019-03-23T15:41:40.433Z,102065.38
2019-03-23T15:44:14.495Z,102062.44
2019-03-23T15:46:48.457Z,102062.62
2019-03-23T15:49:22.543Z,102055.66
2019-03-23T15:51:56.528Z,102059.81
2019-03-23T15:54:35.316Z,102060.03
2019-03-23T15:57:09.293Z,102060.59
2019-03-23T15:59:43.383Z,102064.92
2019-03-23T16:02:17.364Z,102068.68
2019-03-23T16:04:51.501Z,102073.00
2019-03-23T16:07:29.519Z,102071.72
2019-03-23T16:10:02.026Z,102079.45
2019-03-23T16:12:37.712Z,102090.91
2019-03-23T16:15:14.362Z,102081.84
2019-03-23T16:17:48.612Z,102081.88
2019-03-23T16:20:22.814Z,102085.13
2019-03-23T16:22:57.003Z,102086.81
2019-03-23T16:25:33.697Z,102083.72
2019-03-23T16:28:07.810Z,102088.73
2019-03-23T16:30:43.009Z,102085.94
2019-03-23T16:33:17.009Z,102088.54
2019-03-23T16:35:51.401Z,102093.23
2019-03-23T16:38:25.441Z,102087.14
2019-03-23T16:40:59.721Z,102081.18
2019-03-23T16:43:33.795Z,102080.80
2019-03-23T16:46:07.678Z,102082.91
2019-03-23T16:48:41.835Z,102087.17
2019-03-23T16:51:15.993Z,102086.41
2019-03-23T16:53:50.164Z,102088.05
2019-03-23T16:56:24.067Z,102085.53
2019-03-23T16:58:58.222Z,102083.08
2019-03-23T17:01:32.135Z,102092.45
2019-03-23T17:04:06.169Z,102086.88
2019-03-23T17:06:46.349Z,102091.60
2019-03-23T17:09:16.008Z,102088.66
2019-03-23T17:11:49.935Z,102088.21
2019-03-23T17:14:24.226Z,102081.82
2019-03-23T17:17:00.239Z,102084.83
2019-03-23T17:19:33.927Z,102093.89
2019-03-23T17:22:08.058Z,102092.25
2019-03-23T17:24:42.061Z,102091.04
2019-03-23T17:27:17.462Z,102092.80
2019-03-23T17:29:51.807Z,102096.27
2019-03-23T17:32:25.794Z,102098.03
2019-03-23T17:35:00.109Z,102106.27
2019-03-23T17:37:34.097Z,102105.88
2019-03-23T17:40:08.794Z,102103.77
2019-03-23T17:42:42.706Z,102115.34
2019-03-23T17:45:18.827Z,102114.50
2019-03-23T17:47:52.901Z,102111.53
2019-03-23T17:50:27.064Z,102115.46
2019-03-23T17:53:00.999Z,102114.22
2019-03-23T17:55:35.113Z,102110.84
2019-03-23T17:58:09.042Z,102109.59
2019-03-23T18:00:43.270Z,102121.16
2019-03-23T18:03:18.127Z,102116.94
2019-03-23T18:05:52.985Z,102117.36
2019-03-23T18:08:26.931Z,102121.66
2019-03-23T18:11:02.294Z,102127.68
2019-03-23T18:13:36.212Z,102126.41
2019-03-23T18:16:12.188Z,102129.84
2019-03-23T18:18:46.205Z,102125.13
2019-03-23T18:21:20.372Z,102132.42
2019-03-23T18:23:54.436Z,102131.58
2019-03-23T18:26:29.379Z,102136.30
2019-03-23T18:29:03.517Z,102135.01
2019-03-23T18:31:37.632Z,102130.73
2019-03-23T18:34:11.787Z,102134.17
2019-03-23T18:36:46.309Z,102141.42
2019-03-23T18:39:20.327Z,102145.64
2019-03-23T18:41:55.633Z,102142.27
2019-03-23T18:44:29.803Z,102137.98
2019-03-23T18:47:05.224Z,102145.64
2019-03-23T18:49:39.359Z,102148.19
2019-03-23T18:52:13.307Z,102146.90
2019-03-23T18:54:47.258Z,102141.77
2019-03-23T18:57:21.421Z,102149.81
2019-03-23T18:59:55.761Z,102154.06
2019-03-23T19:02:30.190Z,102151.02
2019-03-23T19:05:04.752Z,102153.11
2019-03-23T19:07:38.613Z,102150.92
2019-03-23T19:10:13.043Z,102159.00
2019-03-23T19:12:48.433Z,102159.03
2019-03-23T19:15:22.449Z,102162.40
2019-03-23T19:17:56.628Z,102168.78
2019-03-23T19:20:32.089Z,102168.72
2019-03-23T19:23:05.971Z,102167.42
2019-03-23T19:25:40.194Z,102172.91
2019-03-23T19:28:14.277Z,102183.09
2019-03-23T19:30:48.290Z,102189.99
2019-03-23T19:33:22.969Z,102182.75
2019-03-23T19:35:57.236Z,102195.95
2019-03-23T19:38:31.204Z,102198.03
2019-03-23T19:41:05.680Z,102198.46
2019-03-23T19:43:48.271Z,102195.88
2019-03-23T19:46:16.044Z,102200.52
2019-03-23T19:48:49.992Z,102199.16
2019-03-23T19:51:24.070Z,102196.17
2019-03-23T19:53:58.053Z,102202.10
2019-03-23T19:56:31.581Z,102195.67
2019-03-23T19:59:05.075Z,102212.20
2019-03-23T20:01:38.615Z,102210.90
2019-03-23T20:04:12.039Z,102211.69
2019-03-23T20:06:45.681Z,102207.83
2019-03-23T20:09:19.340Z,102205.22
2019-03-23T20:11:52.863Z,102215.36
2019-03-23T20:14:26.270Z,102217.41
2019-03-23T20:16:59.805Z,102209.27
2019-03-23T20:19:33.319Z,102203.28
2019-03-23T20:22:06.784Z,102201.11
2019-03-23T20:24:40.154Z,102200.58
2019-03-23T20:27:13.681Z,102207.38
2019-03-23T20:29:47.188Z,102201.39
2019-03-23T20:32:20.796Z,102214.52
2019-03-23T20:34:54.287Z,102206.95
2019-03-23T20:37:28.067Z,102205.06
2019-03-23T20:40:01.476Z,102204.29
2019-03-23T20:42:35.029Z,102206.84
2019-03-23T20:45:09.579Z,102208.93
2019-03-23T20:47:43.186Z,102218.35
2019-03-23T20:50:16.810Z,102222.09
2019-03-23T20:52:50.329Z,102211.90
2019-03-23T20:55:28.896Z,102208.50
2019-03-23T20:58:02.546Z,102208.00
2019-03-23T21:00:36.126Z,102198.69
2019-03-23T21:03:09.632Z,102201.66
2019-03-23T21:05:43.141Z,102201.58
2019-03-23T21:08:16.708Z,102207.48
2019-03-23T21:10:50.233Z,102209.99
2019-03-23T21:13:23.801Z,102211.22
2019-03-23T21:15:57.472Z,102209.09
2019-03-23T21:18:30.938Z,102208.17
2019-03-23T21:21:04.468Z,102206.84
2019-03-23T21:23:38.254Z,102205.95
2019-03-23T21:26:11.891Z,102204.63
2019-03-23T21:28:45.407Z,102205.05
2019-03-23T21:31:19.009Z,102202.08
2019-03-23T21:33:52.572Z,102202.03
2019-03-23T21:36:26.073Z,102199.45
2019-03-23T21:38:59.541Z,102199.45
2019-03-23T21:41:33.339Z,102196.47
2019-03-23T21:44:06.765Z,102201.52
2019-03-23T21:46:40.388Z,102196.42
2019-03-23T21:49:14.447Z,102195.11
2019-03-23T21:51:48.405Z,102199.31
2019-03-23T21:54:22.205Z,102196.62
2019-03-23T21:56:55.794Z,102198.30
2019-03-23T21:59:29.727Z,102200.43
2019-03-23T22:02:03.548Z,102196.51
2019-03-23T22:04:39.752Z,102190.00
2019-03-23T22:07:13.546Z,102184.91
2019-03-23T22:09:47.108Z,102188.69
2019-03-23T22:12:20.865Z,102189.56
2019-03-23T22:14:54.448Z,102188.30
2019-03-23T22:17:28.229Z,102199.70
2019-03-23T22:20:01.916Z,102200.13
2019-03-23T22:22:35.429Z,102204.38
2019-03-23T22:25:09.304Z,102194.56
2019-03-23T22:27:44.132Z,102201.34
2019-03-23T22:30:18.212Z,102204.23
2019-03-23T22:32:51.820Z,102196.50
2019-03-23T22:35:25.421Z,102189.70
2019-03-23T22:37:58.961Z,102197.75
2019-03-23T22:40:32.732Z,102196.01
2019-03-23T22:43:06.302Z,102198.09
2019-03-23T22:45:39.749Z,102195.06
2019-03-23T22:48:13.497Z,102198.02
2019-03-23T22:50:46.912Z,102196.69
2019-03-23T22:53:20.373Z,102194.94
2019-03-23T22:55:53.823Z,102184.72
2019-03-23T22:58:27.260Z,102193.18
2019-03-23T23:01:00.694Z,102191.37
2019-03-23T23:03:34.148Z,102188.30
2019-03-23T23:06:07.737Z,102183.99
2019-03-23T23:08:41.107Z,102180.91
2019-03-23T23:11:14.596Z,102172.36
2019-03-23T23:13:48.125Z,102166.63
2019-03-23T23:16:21.588Z,102166.63
2019-03-23T23:18:55.276Z,102166.50
2019-03-23T23:21:28.766Z,102161.66
2019-03-23T23:24:02.289Z,102161.66
2019-03-23T23:26:35.791Z,102166.53
2019-03-23T23:29:09.339Z,102160.04
2019-03-23T23:31:42.846Z,102167.48
2019-03-23T23:34:16.415Z,102166.98
2019-03-23T23:36:49.978Z,102153.34
2019-03-23T23:39:23.410Z,102152.37
2019-03-23T23:41:56.937Z,102152.37
2019-03-23T23:44:30.679Z,102157.96
2019-03-23T23:47:04.235Z,102157.02
2019-03-23T23:49:37.852Z,102162.89
2019-03-23T23:52:11.310Z,102164.89
2019-03-23T23:54:44.760Z,102151.68
2019-03-23T23:57:18.253Z,102151.68
2019-03-23T23:59:51.700Z,102155.48
